Time;durP1;ratioP1;P1;durP2;ratioP2;P2;SDS_P1;SDS_P2;PMS_P1;PMS_P2;Temp;Humidity;BMP_temperature;BMP_pressure;BME280_temperature;BME280_humidity;BME280_pressure;Samples;Min_cycle;Max_cycle;Signal;HPM_P1;HPM_P2
2022/05/01 00:01:00;;;;;;;14.90;7.72;;;10.50;99.90;;;;;;4991825;28;20409;-59
2022/05/01 00:03:31;;;;;;;12.53;7.20;;;10.40;99.90;;;;;;4992694;28;20713;-60
2022/05/01 00:06:09;;;;;;;15.27;7.45;;;10.50;99.90;;;;;;4991246;28;20480;-60
2022/05/01 00:08:37;;;;;;;12.07;7.07;;;10.50;99.90;;;;;;4990756;28;20390;-60
2022/05/01 00:11:03;;;;;;;13.63;8.00;;;10.40;99.90;;;;;;4989324;28;20382;-58
2022/05/01 00:13:29;;;;;;;13.47;8.13;;;10.30;99.90;;;;;;4988627;28;20386;-60
2022/05/01 00:15:56;;;;;;;12.20;7.97;;;10.30;99.90;;;;;;4987684;28;20422;-61
2022/05/01 00:18:21;;;;;;;12.35;7.75;;;10.30;99.90;;;;;;4989075;28;20432;-60
2022/05/01 00:20:47;;;;;;;11.27;7.10;;;10.30;99.90;;;;;;4988528;28;20402;-60
2022/05/01 00:23:14;;;;;;;13.40;7.30;;;10.20;99.90;;;;;;4990989;28;20394;-60
2022/05/01 00:25:41;;;;;;;14.68;7.53;;;10.20;99.90;;;;;;4988843;28;20945;-59
2022/05/01 00:28:08;;;;;;;13.73;7.67;;;10.20;99.90;;;;;;4990482;28;20398;-58
2022/05/01 00:30:35;;;;;;;11.55;7.18;;;10.20;99.90;;;;;;4991566;28;20523;-59
2022/05/01 00:38:29;;;;;;;14.32;7.97;;;10.20;99.90;;;;;;5009831;28;20503;-60
2022/05/01 00:40:55;;;;;;;14.32;7.57;;;10.10;99.90;;;;;;4993787;28;20388;-60
2022/05/01 00:43:20;;;;;;;12.02;7.22;;;10.10;99.90;;;;;;4994303;28;20422;-58
2022/05/01 00:45:46;;;;;;;13.45;7.53;;;10.20;99.90;;;;;;4994462;28;20409;-60
2022/05/01 00:48:11;;;;;;;16.43;7.10;;;10.20;99.90;;;;;;5011544;28;20690;-60
2022/05/01 00:50:37;;;;;;;11.83;6.97;;;10.20;99.90;;;;;;4995151;28;20482;-60
2022/05/01 00:53:05;;;;;;;11.50;7.40;;;10.10;99.90;;;;;;5013262;28;20407;-60
2022/05/01 00:55:32;;;;;;;15.88;7.32;;;10.10;99.90;;;;;;4995860;28;20557;-61
2022/05/01 00:57:58;;;;;;;11.30;7.47;;;10.10;99.90;;;;;;4994546;28;20389;-61
2022/05/01 01:00:23;;;;;;;14.77;7.22;;;10.10;99.90;;;;;;4995048;28;20389;-59
2022/05/01 01:02:49;;;;;;;11.60;6.95;;;10.00;99.90;;;;;;4993889;28;20467;-61
2022/05/01 01:05:14;;;;;;;15.60;7.60;;;10.00;99.90;;;;;;4993018;28;20405;-61
2022/05/01 01:07:42;;;;;;;14.97;7.57;;;9.90;99.90;;;;;;4992920;28;20455;-60
2022/05/01 01:10:08;;;;;;;12.88;8.05;;;9.80;99.90;;;;;;4993454;28;20389;-62
2022/05/01 01:15:17;;;;;;;11.70;7.43;;;9.80;99.90;;;;;;5009035;28;20447;-60
2022/05/01 01:17:46;;;;;;;14.18;7.13;;;9.80;99.90;;;;;;4990866;28;20412;-60
2022/05/01 01:20:13;;;;;;;9.98;7.28;;;9.80;99.90;;;;;;4991270;28;20398;-61
2022/05/01 01:22:48;;;;;;;12.10;7.28;;;9.80;99.90;;;;;;4991916;28;20446;-61
2022/05/01 01:25:16;;;;;;;12.00;6.80;;;9.70;99.90;;;;;;4992402;28;20397;-61
2022/05/01 01:27:42;;;;;;;11.90;7.60;;;9.70;99.90;;;;;;4991877;28;20380;-61
2022/05/01 01:32:54;;;;;;;11.35;7.10;;;9.70;99.90;;;;;;5013893;28;20455;-61
2022/05/01 01:35:24;;;;;;;11.07;7.15;;;9.70;99.90;;;;;;5013888;28;20479;-61
2022/05/01 01:37:50;;;;;;;10.85;7.63;;;9.70;99.90;;;;;;4997943;28;20396;-60
2022/05/01 01:40:22;;;;;;;12.00;7.55;;;9.70;99.90;;;;;;4998637;28;20380;-61
2022/05/01 01:42:50;;;;;;;11.98;7.13;;;9.70;99.90;;;;;;4997205;28;20676;-61
2022/05/01 01:45:16;;;;;;;15.43;8.18;;;9.60;99.90;;;;;;5014526;28;20440;-61
2022/05/01 01:47:49;;;;;;;13.35;7.47;;;9.50;99.90;;;;;;4997052;28;20420;-61
2022/05/01 01:50:16;;;;;;;10.95;7.43;;;9.50;99.90;;;;;;4994336;28;20471;-59
2022/05/01 01:52:46;;;;;;;15.27;7.82;;;9.50;99.90;;;;;;5012656;28;20392;-61
2022/05/01 01:55:17;;;;;;;13.43;7.20;;;9.40;99.90;;;;;;4994683;28;20393;-61
2022/05/01 01:57:44;;;;;;;9.98;6.65;;;9.40;99.90;;;;;;4995141;28;20814;-61
2022/05/01 02:00:11;;;;;;;16.73;9.73;;;9.40;99.90;;;;;;4995018;28;20416;-61
2022/05/01 02:02:36;;;;;;;10.95;7.47;;;9.40;99.90;;;;;;5011485;28;20440;-59
2022/05/01 02:05:03;;;;;;;23.50;13.57;;;9.30;99.90;;;;;;4995676;28;20475;-61
2022/05/01 02:07:30;;;;;;;44.15;25.38;;;9.30;99.90;;;;;;5013567;28;20397;-60
2022/05/01 02:09:56;;;;;;;10.93;7.90;;;9.30;99.90;;;;;;5011353;28;20497;-61
2022/05/01 02:12:22;;;;;;;13.65;7.45;;;9.30;99.90;;;;;;4995783;28;20397;-60
2022/05/01 02:14:48;;;;;;;53.17;32.37;;;9.20;99.90;;;;;;4993980;28;20483;-61
2022/05/01 02:17:13;;;;;;;71.17;46.03;;;9.20;99.90;;;;;;4994346;28;20443;-60
2022/05/01 02:19:39;;;;;;;14.25;9.10;;;9.30;99.90;;;;;;4993092;28;20395;-58
2022/05/01 02:22:04;;;;;;;23.50;14.03;;;9.30;99.90;;;;;;4993345;28;20492;-61
2022/05/01 02:24:31;;;;;;;13.93;7.77;;;9.30;99.90;;;;;;4992625;28;20415;-58
2022/05/01 02:26:57;;;;;;;16.35;10.57;;;9.20;99.90;;;;;;5009817;28;20396;-61
2022/05/01 02:29:22;;;;;;;16.30;9.73;;;9.20;99.90;;;;;;5008825;28;20400;-61
2022/05/01 02:31:53;;;;;;;17.23;9.88;;;9.20;99.90;;;;;;5010071;28;20408;-61
2022/05/01 02:34:22;;;;;;;15.90;8.20;;;9.20;99.90;;;;;;4991923;28;20508;-57
2022/05/01 02:36:48;;;;;;;28.17;17.45;;;9.20;99.90;;;;;;5012072;28;20381;-60
2022/05/01 02:39:14;;;;;;;16.30;9.40;;;9.20;99.90;;;;;;4994735;28;20390;-59
2022/05/01 02:41:39;;;;;;;13.65;7.93;;;9.30;99.90;;;;;;4994515;28;20442;-61
2022/05/01 02:44:05;;;;;;;10.95;7.22;;;9.30;99.90;;;;;;4995509;28;20400;-61
2022/05/01 02:46:32;;;;;;;13.87;7.27;;;9.30;99.90;;;;;;4994452;28;20393;-61
2022/05/01 02:48:58;;;;;;;12.27;7.28;;;9.30;99.90;;;;;;5010142;28;20678;-61
2022/05/01 02:51:23;;;;;;;12.27;7.28;;;9.30;99.90;;;;;;5009305;28;20393;-61
2022/05/01 02:53:49;;;;;;;9.93;6.63;;;9.20;99.90;;;;;;4992852;28;20384;-59
2022/05/01 02:56:15;;;;;;;12.20;7.32;;;9.20;99.90;;;;;;4994131;28;20393;-61
2022/05/01 02:58:40;;;;;;;15.25;8.38;;;9.20;99.90;;;;;;4993637;28;20399;-59
2022/05/01 03:01:06;;;;;;;19.90;12.57;;;9.10;99.90;;;;;;5010698;28;20444;-60
2022/05/01 03:03:31;;;;;;;12.27;7.20;;;9.10;99.90;;;;;;4992612;28;20490;-60
2022/05/01 03:05:58;;;;;;;11.35;6.50;;;9.20;99.90;;;;;;4994939;28;20404;-61
2022/05/01 03:08:24;;;;;;;9.38;6.55;;;9.10;99.90;;;;;;4995139;28;20458;-58
2022/05/01 03:10:50;;;;;;;11.82;6.55;;;9.20;99.90;;;;;;4995334;28;20385;-60
2022/05/01 03:13:19;;;;;;;10.30;6.38;;;9.20;99.90;;;;;;4995154;28;20403;-60
2022/05/01 03:15:45;;;;;;;12.35;6.80;;;9.20;99.90;;;;;;4993594;28;20424;-58
2022/05/01 03:23:39;;;;;;;11.30;6.88;;;9.20;99.90;;;;;;5015266;28;20388;-60
2022/05/01 03:26:05;;;;;;;12.63;6.95;;;9.10;99.90;;;;;;4999313;28;20404;-59
2022/05/01 03:28:31;;;;;;;11.80;6.57;;;9.10;99.90;;;;;;5000949;28;20406;-60
2022/05/01 03:30:57;;;;;;;10.18;6.38;;;9.10;99.90;;;;;;5017607;28;20388;-60
2022/05/01 03:33:23;;;;;;;9.43;6.15;;;9.10;99.90;;;;;;5016494;28;20400;-60
2022/05/01 03:35:49;;;;;;;11.82;6.60;;;9.10;99.90;;;;;;5001020;28;20389;-61
2022/05/01 03:38:16;;;;;;;10.82;6.40;;;9.20;99.90;;;;;;5001220;28;20388;-60
2022/05/01 03:40:43;;;;;;;11.60;6.47;;;9.20;99.90;;;;;;5000600;28;20803;-61
2022/05/01 03:43:08;;;;;;;12.43;6.70;;;9.20;99.90;;;;;;4998993;28;20384;-62
2022/05/01 03:45:34;;;;;;;12.13;6.83;;;9.10;99.90;;;;;;4999114;28;20873;-60
2022/05/01 03:48:00;;;;;;;11.20;6.25;;;9.10;99.90;;;;;;5015876;28;20809;-59
2022/05/01 03:50:26;;;;;;;9.20;5.83;;;9.00;99.90;;;;;;4998686;28;20389;-60
2022/05/01 03:52:52;;;;;;;10.57;6.15;;;9.10;99.90;;;;;;5014824;28;20385;-60
2022/05/01 03:58:40;;;;;;;8.88;5.63;;;9.10;99.90;;;;;;5015595;28;20449;-61
2022/05/01 04:01:07;;;;;;;11.35;6.20;;;9.10;99.90;;;;;;4995603;28;20495;-61
2022/05/01 04:03:33;;;;;;;9.70;5.38;;;9.10;99.90;;;;;;4994996;28;20784;-59
2022/05/01 04:05:59;;;;;;;9.45;5.55;;;9.20;99.90;;;;;;4996162;28;20419;-62
2022/05/01 04:08:24;;;;;;;12.88;6.03;;;9.20;99.90;;;;;;4997351;28;20403;-61
2022/05/01 04:10:50;;;;;;;12.50;5.95;;;9.20;99.90;;;;;;4996238;28;20419;-60
2022/05/01 04:13:16;;;;;;;8.47;5.43;;;9.10;99.90;;;;;;4995454;28;20819;-59
2022/05/01 04:15:42;;;;;;;10.30;5.57;;;9.10;99.90;;;;;;5013148;28;20642;-60
2022/05/01 04:18:08;;;;;;;10.67;5.70;;;9.20;99.90;;;;;;5012122;28;20685;-61
2022/05/01 04:20:37;;;;;;;10.50;5.10;;;9.20;99.90;;;;;;4993100;28;20396;-61
2022/05/01 04:23:04;;;;;;;10.75;5.90;;;9.20;99.90;;;;;;5010795;28;20399;-60
2022/05/01 04:25:30;;;;;;;9.15;5.03;;;9.20;99.90;;;;;;4992933;28;20808;-60
2022/05/01 04:28:09;;;;;;;13.25;5.93;;;9.20;99.90;;;;;;4991413;28;20730;-60
2022/05/01 04:30:36;;;;;;;13.68;5.43;;;9.20;99.90;;;;;;4992761;28;20929;-60
2022/05/01 04:33:05;;;;;;;9.00;5.00;;;9.10;99.90;;;;;;5009996;28;20440;-59
2022/05/01 04:35:37;;;;;;;7.43;4.55;;;9.10;99.90;;;;;;4994502;28;20739;-60
2022/05/01 04:38:05;;;;;;;8.35;5.00;;;9.10;99.90;;;;;;5011806;28;20404;-60
2022/05/01 04:40:35;;;;;;;7.60;4.93;;;9.10;99.90;;;;;;4995948;28;20401;-60
2022/05/01 04:43:09;;;;;;;9.88;4.97;;;9.10;99.90;;;;;;4997057;28;20629;-61
2022/05/01 04:45:37;;;;;;;8.60;4.93;;;9.10;99.90;;;;;;5014038;28;21089;-59
2022/05/01 04:48:04;;;;;;;8.60;5.13;;;9.10;99.90;;;;;;5014431;28;20393;-60
2022/05/01 04:50:30;;;;;;;11.70;5.68;;;9.10;99.90;;;;;;5014200;28;20716;-60
2022/05/01 04:52:57;;;;;;;8.38;5.07;;;9.10;99.90;;;;;;5012641;28;20396;-59
2022/05/01 04:55:23;;;;;;;9.73;4.72;;;9.00;99.90;;;;;;4992855;28;20389;-60
2022/05/01 04:57:49;;;;;;;9.97;5.10;;;9.10;99.90;;;;;;5009555;28;20483;-60
2022/05/01 05:00:19;;;;;;;8.83;4.83;;;9.10;99.90;;;;;;4994253;28;20385;-60
2022/05/01 05:02:47;;;;;;;7.85;5.00;;;9.00;99.90;;;;;;5010171;28;20396;-59
2022/05/01 05:05:13;;;;;;;9.60;5.07;;;9.00;99.90;;;;;;4993088;28;20463;-60
2022/05/01 05:07:40;;;;;;;8.70;5.05;;;9.00;99.90;;;;;;5011223;28;20389;-59
2022/05/01 05:10:08;;;;;;;11.05;5.50;;;9.00;99.90;;;;;;4993647;28;20385;-59
2022/05/01 05:12:36;;;;;;;7.80;4.53;;;8.90;99.90;;;;;;4994643;28;20875;-60
2022/05/01 05:15:04;;;;;;;9.50;5.20;;;9.00;99.90;;;;;;5010481;28;20392;-60
2022/05/01 05:17:31;;;;;;;10.30;5.20;;;8.90;99.90;;;;;;4993960;28;20419;-59
2022/05/01 05:19:57;;;;;;;10.23;5.00;;;8.90;99.90;;;;;;4995895;28;20415;-60
2022/05/01 05:22:23;;;;;;;8.57;4.82;;;9.00;99.90;;;;;;4994642;28;20771;-60
2022/05/01 05:24:48;;;;;;;11.30;5.03;;;9.00;99.90;;;;;;4994639;28;20412;-57
2022/05/01 05:27:14;;;;;;;7.90;4.70;;;9.00;99.90;;;;;;4993335;28;20740;-58
2022/05/01 05:29:40;;;;;;;8.00;4.43;;;9.00;99.90;;;;;;4993492;28;20716;-60
2022/05/01 05:32:07;;;;;;;9.30;4.77;;;9.10;99.90;;;;;;4993093;28;20389;-61
2022/05/01 05:34:32;;;;;;;7.45;4.28;;;9.00;99.90;;;;;;4995416;28;20475;-61
2022/05/01 05:36:58;;;;;;;10.07;4.43;;;9.10;99.90;;;;;;4995637;28;20397;-60
2022/05/01 05:39:23;;;;;;;8.52;4.60;;;9.10;99.90;;;;;;4993714;28;20425;-58
2022/05/01 05:41:49;;;;;;;9.97;4.77;;;9.10;99.90;;;;;;5010441;28;20680;-60
2022/05/01 05:44:15;;;;;;;8.03;4.63;;;9.20;99.90;;;;;;4991563;28;20428;-60
2022/05/01 05:46:41;;;;;;;9.10;4.30;;;9.20;99.90;;;;;;5008478;28;20460;-58
2022/05/01 05:49:07;;;;;;;7.27;4.13;;;9.20;99.90;;;;;;4991710;28;20772;-59
2022/05/01 05:51:33;;;;;;;9.83;4.57;;;9.20;99.90;;;;;;4991220;28;20393;-60
2022/05/01 05:53:58;;;;;;;8.00;4.60;;;9.30;99.90;;;;;;5011227;28;20372;-60
2022/05/01 05:56:24;;;;;;;6.13;4.00;;;9.30;99.90;;;;;;4993977;28;20404;-60
2022/05/01 05:58:50;;;;;;;8.25;4.43;;;9.30;99.90;;;;;;5010341;28;20475;-58
2022/05/01 06:01:16;;;;;;;8.63;4.40;;;9.40;99.90;;;;;;5009792;28;20400;-59
2022/05/01 06:03:42;;;;;;;9.00;4.23;;;9.40;99.90;;;;;;5008526;28;20416;-60
2022/05/01 06:06:08;;;;;;;6.27;3.77;;;9.50;99.90;;;;;;4993617;28;20460;-60
2022/05/01 06:08:35;;;;;;;8.00;3.50;;;9.50;99.90;;;;;;4994519;28;20393;-60
2022/05/01 06:11:01;;;;;;;7.75;4.00;;;9.60;99.90;;;;;;4994201;28;20930;-60
2022/05/01 06:13:27;;;;;;;8.15;3.60;;;9.60;99.90;;;;;;4992880;28;20377;-60
2022/05/01 06:15:53;;;;;;;7.28;3.40;;;9.50;99.90;;;;;;5011044;28;20788;-61
2022/05/01 06:18:18;;;;;;;5.97;3.42;;;9.50;99.90;;;;;;4993260;28;20408;-61
2022/05/01 06:20:44;;;;;;;8.95;3.97;;;9.60;99.90;;;;;;4992280;28;20396;-61
2022/05/01 06:23:10;;;;;;;6.90;3.47;;;9.50;99.90;;;;;;5010581;28;20396;-61
2022/05/01 06:25:38;;;;;;;7.83;4.13;;;9.60;99.90;;;;;;5009947;28;20685;-60
2022/05/01 06:28:05;;;;;;;8.18;3.70;;;9.70;99.90;;;;;;4991132;28;20399;-60
2022/05/01 06:30:31;;;;;;;6.30;3.53;;;9.70;99.90;;;;;;4991835;28;20392;-60
2022/05/01 06:32:57;;;;;;;7.97;3.43;;;9.60;99.90;;;;;;5009132;28;20404;-60
2022/05/01 06:35:24;;;;;;;7.07;3.80;;;9.70;99.90;;;;;;4993037;28;20590;-61
2022/05/01 06:37:50;;;;;;;6.97;3.40;;;9.60;99.90;;;;;;4992294;28;20666;-59
2022/05/01 06:40:16;;;;;;;8.25;3.60;;;9.70;99.90;;;;;;4991474;28;20401;-60
2022/05/01 06:42:41;;;;;;;6.63;3.53;;;9.80;99.90;;;;;;5008087;28;20408;-60
2022/05/01 06:45:07;;;;;;;6.37;3.40;;;9.80;99.90;;;;;;4991075;28;20435;-58
2022/05/01 06:47:33;;;;;;;7.18;3.15;;;9.90;99.90;;;;;;5010909;28;20411;-60
2022/05/01 06:49:58;;;;;;;5.33;3.30;;;9.90;99.90;;;;;;5009049;28;20534;-60
2022/05/01 06:52:25;;;;;;;3.58;2.53;;;10.00;99.90;;;;;;4988628;28;20399;-60
2022/05/01 06:54:51;;;;;;;7.55;3.47;;;10.10;99.90;;;;;;5005701;28;20396;-60
2022/05/01 06:57:17;;;;;;;6.90;3.72;;;10.10;99.90;;;;;;4989615;28;20389;-60
2022/05/01 06:59:43;;;;;;;5.65;3.10;;;10.10;99.90;;;;;;5008583;28;20419;-60
2022/05/01 07:02:08;;;;;;;4.90;2.47;;;10.20;99.90;;;;;;4989961;28;20676;-60
2022/05/01 07:04:34;;;;;;;3.87;1.87;;;10.20;99.90;;;;;;4989570;28;20665;-58
2022/05/01 07:07:00;;;;;;;7.10;2.30;;;10.20;99.90;;;;;;4989310;28;20381;-58
2022/05/01 07:09:26;;;;;;;4.63;1.92;;;10.10;99.90;;;;;;4987007;28;20388;-60
2022/05/01 07:11:51;;;;;;;4.97;1.87;;;10.20;99.90;;;;;;5005634;28;20705;-60
2022/05/01 07:14:17;;;;;;;3.60;1.60;;;10.20;99.90;;;;;;4986476;28;20397;-60
2022/05/01 07:16:43;;;;;;;5.70;1.75;;;10.20;99.90;;;;;;5002037;28;20476;-58
2022/05/01 07:19:08;;;;;;;4.68;1.67;;;10.30;99.90;;;;;;4985358;28;20676;-58
2022/05/01 07:21:34;;;;;;;4.82;1.67;;;10.40;99.90;;;;;;5002950;28;20391;-61
2022/05/01 07:24:00;;;;;;;4.00;1.80;;;10.40;99.90;;;;;;5001432;28;20385;-60
2022/05/01 07:26:33;;;;;;;5.30;2.20;;;10.30;99.90;;;;;;4986508;28;20466;-60
2022/05/01 07:29:00;;;;;;;6.28;2.50;;;10.30;99.90;;;;;;4989221;28;20423;-61
2022/05/01 07:31:26;;;;;;;4.27;2.53;;;10.30;99.90;;;;;;4989320;28;20396;-59
2022/05/01 07:33:52;;;;;;;6.35;2.40;;;10.30;99.90;;;;;;5005338;28;20425;-59
2022/05/01 07:36:19;;;;;;;4.82;2.35;;;10.30;99.90;;;;;;4990377;28;20685;-58
2022/05/01 07:38:45;;;;;;;8.75;3.63;;;10.30;99.90;;;;;;4988332;28;20389;-60
2022/05/01 07:41:10;;;;;;;4.82;2.50;;;10.50;99.90;;;;;;4988943;28;20455;-61
2022/05/01 07:43:36;;;;;;;5.63;2.65;;;10.50;99.90;;;;;;4988259;28;20401;-59
2022/05/01 07:46:02;;;;;;;5.50;3.00;;;10.60;99.90;;;;;;4989084;28;20421;-61
2022/05/01 07:48:28;;;;;;;6.93;3.10;;;10.70;99.90;;;;;;4985883;28;20451;-58
2022/05/01 07:50:53;;;;;;;6.65;3.75;;;10.70;99.90;;;;;;4987386;28;20388;-60
2022/05/01 07:53:19;;;;;;;6.47;2.95;;;10.80;99.90;;;;;;5003506;28;20389;-60
2022/05/01 07:55:45;;;;;;;6.03;2.77;;;10.80;99.90;;;;;;5004898;28;20751;-61
2022/05/01 07:58:10;;;;;;;6.80;2.70;;;10.80;99.90;;;;;;4989266;28;20475;-61
2022/05/01 08:00:36;;;;;;;6.47;2.45;;;10.80;99.90;;;;;;5004952;28;20728;-60
2022/05/01 08:05:46;;;;;;;4.30;2.15;;;10.90;99.90;;;;;;5006568;28;20407;-60
2022/05/01 08:08:11;;;;;;;4.00;2.00;;;10.90;99.90;;;;;;4988951;28;20483;-61
2022/05/01 08:10:37;;;;;;;6.03;2.10;;;11.00;99.90;;;;;;5009189;28;20430;-61
2022/05/01 08:13:03;;;;;;;3.80;2.13;;;11.10;99.90;;;;;;4990335;28;20420;-61
2022/05/01 08:15:29;;;;;;;4.70;1.92;;;11.10;99.90;;;;;;4991157;28;20416;-60
2022/05/01 08:21:04;;;;;;;4.78;2.15;;;11.20;99.90;;;;;;4989313;28;20405;-61
2022/05/01 08:23:24;;;;;;;4.35;2.70;;;11.40;99.90;;;;;;5006154;28;20743;-61
2022/05/01 08:25:49;;;;;;;6.20;3.15;;;11.40;99.90;;;;;;4988704;28;20794;-60
2022/05/01 08:28:15;;;;;;;6.80;3.43;;;11.50;99.90;;;;;;4988628;28;20458;-61
2022/05/01 08:30:40;;;;;;;6.37;4.33;;;11.50;99.90;;;;;;4989997;28;20393;-60
2022/05/01 08:33:06;;;;;;;5.53;3.90;;;11.50;99.90;;;;;;4990096;28;20401;-60
2022/05/01 08:35:32;;;;;;;6.77;4.20;;;11.50;99.90;;;;;;4989669;28;20411;-60
2022/05/01 08:37:57;;;;;;;4.90;3.70;;;11.60;99.90;;;;;;4990187;28;20450;-61
2022/05/01 08:40:23;;;;;;;5.90;3.80;;;11.70;99.90;;;;;;5008825;28;20442;-60
2022/05/01 08:42:51;;;;;;;5.07;3.90;;;11.70;99.90;;;;;;4991563;28;20816;-59
2022/05/01 08:45:24;;;;;;;5.40;4.05;;;11.70;99.90;;;;;;4988074;28;20463;-61
2022/05/01 08:48:07;;;;;;;5.37;3.77;;;11.70;99.90;;;;;;5007799;28;20789;-60
2022/05/01 08:50:35;;;;;;;6.20;4.13;;;11.80;99.90;;;;;;4991078;28;20525;-61
2022/05/01 08:53:02;;;;;;;7.05;4.65;;;11.70;99.90;;;;;;4990685;28;20389;-60
2022/05/01 08:55:30;;;;;;;5.40;3.53;;;11.80;99.90;;;;;;4988495;28;20814;-61
2022/05/01 08:57:58;;;;;;;7.27;3.80;;;11.80;99.90;;;;;;4988670;28;20432;-60
2022/05/01 09:00:26;;;;;;;4.60;2.65;;;11.90;99.90;;;;;;4987985;28;20398;-60
2022/05/01 09:02:52;;;;;;;3.08;2.05;;;11.90;99.90;;;;;;4985696;28;20695;-59
2022/05/01 09:05:18;;;;;;;2.65;2.10;;;12.00;99.90;;;;;;4988873;28;20499;-61
2022/05/01 09:07:43;;;;;;;3.92;2.22;;;12.00;99.90;;;;;;4990092;28;20465;-61
2022/05/01 09:10:09;;;;;;;2.23;1.40;;;12.10;99.90;;;;;;4989167;28;20433;-61
2022/05/01 09:12:52;;;;;;;3.83;1.87;;;12.20;99.90;;;;;;4989114;28;20921;-60
2022/05/01 09:15:28;;;;;;;4.82;2.20;;;12.30;99.90;;;;;;4988986;28;20389;-61
2022/05/01 09:18:05;;;;;;;3.33;2.00;;;12.30;99.90;;;;;;4988873;28;20478;-60
2022/05/01 09:20:32;;;;;;;2.13;1.50;;;12.40;99.90;;;;;;4987248;28;20455;-60
2022/05/01 09:22:59;;;;;;;2.05;1.40;;;12.50;99.90;;;;;;4988097;28;20704;-60
2022/05/01 09:25:27;;;;;;;1.95;1.40;;;12.40;99.90;;;;;;4988040;28;20572;-61
2022/05/01 09:27:57;;;;;;;3.03;2.00;;;12.40;99.90;;;;;;4987371;28;20424;-60
2022/05/01 09:30:35;;;;;;;4.13;1.35;;;12.50;99.90;;;;;;4987727;28;20556;-61
2022/05/01 09:33:02;;;;;;;1.63;1.10;;;12.60;99.90;;;;;;4986853;28;20404;-60
2022/05/01 09:35:34;;;;;;;2.75;1.05;;;12.70;99.90;;;;;;4987826;28;20412;-61
2022/05/01 09:38:21;;;;;;;1.67;1.10;;;12.80;99.90;;;;;;5004921;28;20530;-61
2022/05/01 09:40:56;;;;;;;2.60;1.23;;;12.90;99.90;;;;;;4989632;28;20451;-61
2022/05/01 09:43:42;;;;;;;2.60;0.95;;;12.90;99.90;;;;;;4988944;28;20665;-67
2022/05/01 09:46:12;;;;;;;1.58;1.08;;;12.90;99.90;;;;;;4986302;28;20497;-61
2022/05/01 09:48:38;;;;;;;1.58;1.25;;;12.90;99.90;;;;;;4989969;28;20397;-61
2022/05/01 09:51:17;;;;;;;3.00;1.50;;;12.90;99.90;;;;;;4989024;28;20400;-60
2022/05/01 09:53:44;;;;;;;3.78;0.93;;;12.90;99.90;;;;;;4989579;28;20537;-61
2022/05/01 09:56:10;;;;;;;1.60;1.00;;;12.90;99.90;;;;;;4989116;28;20499;-60
2022/05/01 09:58:40;;;;;;;2.43;0.70;;;12.90;99.90;;;;;;4986236;28;20767;-61
2022/05/01 10:01:14;;;;;;;1.45;0.70;;;12.80;99.90;;;;;;4987141;28;20440;-62
2022/05/01 10:03:47;;;;;;;0.90;0.60;;;12.90;99.90;;;;;;4988890;28;20395;-59
2022/05/01 10:06:15;;;;;;;1.10;0.50;;;13.00;99.90;;;;;;4987475;28;20769;-60
2022/05/01 10:08:42;;;;;;;5.30;0.90;;;13.20;99.90;;;;;;4986481;28;20815;-61
2022/05/01 10:11:08;;;;;;;1.85;0.80;;;13.20;99.90;;;;;;4985895;28;21063;-61
2022/05/01 10:13:35;;;;;;;1.08;0.70;;;13.20;99.90;;;;;;4985182;28;20392;-60
2022/05/01 10:16:06;;;;;;;1.88;0.60;;;13.30;99.90;;;;;;5002107;28;20385;-61
2022/05/01 10:18:32;;;;;;;1.17;0.60;;;13.30;99.90;;;;;;4986556;28;20749;-61
2022/05/01 10:20:58;;;;;;;1.30;0.70;;;13.30;99.90;;;;;;4988653;28;20443;-61
2022/05/01 10:23:24;;;;;;;1.50;0.80;;;13.30;99.90;;;;;;5008294;28;20389;-60
2022/05/01 10:26:09;;;;;;;1.57;0.70;;;13.40;99.90;;;;;;4992450;28;20486;-60
2022/05/01 10:29:01;;;;;;;1.37;0.67;;;13.40;99.90;;;;;;4991476;28;20393;-58
2022/05/01 10:32:22;;;;;;;1.80;0.67;;;13.40;99.90;;;;;;4992765;28;20439;-60
2022/05/01 10:35:06;;;;;;;0.75;0.70;;;13.50;99.90;;;;;;5010247;28;20830;-60
2022/05/01 10:38:00;;;;;;;1.60;1.00;;;13.70;99.90;;;;;;5009420;28;20396;-60
2022/05/01 10:40:34;;;;;;;1.17;0.85;;;13.90;99.90;;;;;;4989980;28;21065;-59
2022/05/01 10:43:31;;;;;;;1.35;1.08;;;13.90;99.90;;;;;;4991126;28;20821;-61
2022/05/01 10:46:03;;;;;;;2.47;1.40;;;14.10;99.90;;;;;;4988708;28;20505;-58
2022/05/01 10:48:34;;;;;;;2.35;1.00;;;13.90;99.90;;;;;;5007381;28;20629;-60
2022/05/01 10:51:27;;;;;;;1.65;1.02;;;13.70;99.90;;;;;;4988030;28;20389;-60
2022/05/01 10:54:15;;;;;;;2.15;1.00;;;13.60;99.90;;;;;;4990651;28;20438;-60
2022/05/01 10:56:41;;;;;;;1.50;1.00;;;13.40;99.90;;;;;;4986090;28;20812;-59
2022/05/01 10:59:28;;;;;;;1.90;1.00;;;13.50;99.90;;;;;;5003540;28;20409;-60
2022/05/01 11:02:03;;;;;;;1.55;0.90;;;13.60;99.90;;;;;;4983154;28;20696;-61
2022/05/01 11:04:38;;;;;;;2.47;0.85;;;13.60;99.90;;;;;;5001331;28;20764;-60
2022/05/01 11:07:05;;;;;;;1.20;0.85;;;13.60;99.90;;;;;;5001068;28;20395;-60
2022/05/01 11:09:34;;;;;;;2.63;1.02;;;13.70;99.90;;;;;;4980598;28;20454;-59
2022/05/01 11:12:00;;;;;;;1.85;1.00;;;13.80;99.90;;;;;;4970250;28;20390;-61
2022/05/01 11:14:40;;;;;;;3.10;1.05;;;13.80;99.90;;;;;;4996903;28;20766;-61
2022/05/01 11:17:08;;;;;;;1.63;0.87;;;13.70;99.90;;;;;;4978392;28;20406;-60
2022/05/01 11:19:45;;;;;;;2.00;1.20;;;13.70;99.90;;;;;;4997263;28;20504;-60
2022/05/01 11:22:13;;;;;;;1.13;0.90;;;13.70;99.90;;;;;;4998945;28;20396;-60
2022/05/01 11:24:45;;;;;;;1.45;1.00;;;13.70;99.90;;;;;;4997872;28;20392;-61
2022/05/01 11:27:11;;;;;;;2.43;1.13;;;13.80;99.90;;;;;;4983333;28;20889;-62
2022/05/01 11:29:38;;;;;;;2.42;1.35;;;13.80;99.90;;;;;;4979310;28;20571;-61
2022/05/01 11:32:20;;;;;;;2.50;1.05;;;14.00;99.90;;;;;;4987015;28;20431;-60
2022/05/01 11:34:51;;;;;;;1.98;1.50;;;14.10;99.90;;;;;;4993152;28;20490;-60
2022/05/01 11:37:17;;;;;;;3.13;1.33;;;14.10;99.90;;;;;;4983308;28;20399;-60
2022/05/01 11:39:49;;;;;;;2.45;1.08;;;14.00;99.90;;;;;;5003969;28;20599;-60
2022/05/01 11:42:26;;;;;;;1.90;1.00;;;14.00;99.90;;;;;;4995325;28;20410;-61
2022/05/01 11:44:54;;;;;;;2.38;1.10;;;13.80;99.90;;;;;;4983043;28;20415;-61
2022/05/01 11:47:21;;;;;;;1.88;1.50;;;14.00;99.90;;;;;;4989117;28;20413;-61
2022/05/01 11:49:47;;;;;;;2.20;1.10;;;14.10;99.90;;;;;;4996428;28;20397;-60
2022/05/01 11:52:16;;;;;;;2.50;1.20;;;14.20;99.90;;;;;;4993413;28;20437;-60
2022/05/01 11:54:57;;;;;;;3.23;1.40;;;14.30;99.90;;;;;;4986376;28;20474;-61
2022/05/01 12:03:01;;;;;;;2.60;1.40;;;14.60;99.90;;;;;;5001525;28;20404;-60
2022/05/01 12:05:47;;;;;;;3.05;1.20;;;14.40;99.90;;;;;;5005138;28;20570;-61
2022/05/01 12:08:14;;;;;;;2.63;1.27;;;14.30;99.90;;;;;;4982894;28;20396;-60
2022/05/01 12:10:41;;;;;;;2.95;1.20;;;14.30;99.90;;;;;;5013159;28;20381;-59
2022/05/01 12:13:30;;;;;;;2.80;1.13;;;14.30;99.90;;;;;;4992212;28;20396;-59
2022/05/01 12:15:56;;;;;;;2.25;0.85;;;14.20;99.90;;;;;;4986857;28;20396;-59
2022/05/01 12:18:23;;;;;;;2.00;1.10;;;14.30;99.90;;;;;;5004622;28;20414;-60
2022/05/01 12:20:49;;;;;;;3.40;1.23;;;14.50;99.90;;;;;;4988550;28;20494;-60
2022/05/01 12:23:20;;;;;;;1.50;1.00;;;14.60;99.90;;;;;;5007348;28;20797;-59
2022/05/01 12:25:50;;;;;;;1.38;0.95;;;14.70;99.90;;;;;;4988769;28;20478;-59
2022/05/01 12:28:20;;;;;;;1.70;0.80;;;14.80;99.90;;;;;;4988676;28;20396;-59
2022/05/01 12:30:50;;;;;;;1.63;1.02;;;14.90;99.90;;;;;;4989156;28;20396;-59
2022/05/01 12:33:26;;;;;;;1.92;0.80;;;15.00;99.90;;;;;;5006346;28;20424;-59
2022/05/01 12:35:59;;;;;;;2.15;0.80;;;15.10;99.90;;;;;;4989128;28;20496;-60
2022/05/01 12:38:29;;;;;;;1.35;0.88;;;15.00;99.90;;;;;;4990124;28;20652;-62
2022/05/01 12:43:58;;;;;;;2.03;1.25;;;15.10;99.90;;;;;;5006742;28;20443;-60
2022/05/01 12:46:29;;;;;;;3.50;1.70;;;15.00;99.90;;;;;;4987567;28;20408;-59
2022/05/01 12:48:56;;;;;;;1.92;1.13;;;14.90;99.90;;;;;;4988619;28;20683;-60
2022/05/01 12:51:24;;;;;;;2.53;1.00;;;14.80;99.90;;;;;;4988150;28;20952;-60
2022/05/01 12:54:06;;;;;;;2.00;1.10;;;14.70;99.90;;;;;;4988646;28;20388;-60
2022/05/01 12:56:34;;;;;;;6.28;1.30;;;14.60;99.90;;;;;;5007248;28;20389;-59
2022/05/01 12:59:00;;;;;;;2.50;1.30;;;14.60;99.90;;;;;;4990195;28;20455;-60
2022/05/01 13:01:27;;;;;;;2.70;1.33;;;14.60;99.90;;;;;;4990761;28;20420;-60
2022/05/01 13:03:54;;;;;;;3.15;1.20;;;14.70;99.90;;;;;;4989545;28;20430;-60
2022/05/01 13:06:21;;;;;;;2.78;1.40;;;14.70;99.90;;;;;;4990817;28;20459;-60
2022/05/01 13:08:52;;;;;;;2.87;1.20;;;14.70;99.90;;;;;;4992224;28;20478;-60
2022/05/01 13:11:30;;;;;;;2.27;0.87;;;14.60;99.90;;;;;;4993078;28;20480;-60
2022/05/01 13:14:02;;;;;;;2.83;1.02;;;14.70;99.90;;;;;;5012218;28;20390;-58
2022/05/01 13:16:31;;;;;;;1.10;0.77;;;14.60;99.90;;;;;;4994378;28;20397;-60
2022/05/01 13:19:11;;;;;;;2.00;1.20;;;14.90;99.90;;;;;;4989473;28;20405;-60
2022/05/01 13:21:55;;;;;;;2.63;1.20;;;15.00;99.90;;;;;;4994668;28;20389;-60
2022/05/01 13:24:32;;;;;;;2.50;1.75;;;14.90;99.90;;;;;;5006467;28;20656;-59
2022/05/01 13:27:04;;;;;;;2.47;1.40;;;14.80;99.90;;;;;;4990423;28;20550;-58
2022/05/01 13:29:33;;;;;;;4.90;2.80;;;14.60;99.90;;;;;;4992137;28;20392;-60